Government of Jersey

Home Log in

METAR EGJJ 011120Z 04011KT 010V080 CAVOK 21/10 Q1020

METAR EGJB 011120Z 05014KT CAVOK 18/11 Q1020

METAR EGJA 011050Z 06017KT CAVOK 16/12 Q1021

METAR LFRD 011130Z AUTO 02015KT CAVOK 21/13 Q1019

METAR LFRC 011130Z AUTO 07013KT 030V100 CAVOK 18/11 Q1021